createdAt,value
2019-01-25T00:00:16.996Z,27.30
2019-01-25T00:01:16.983Z,27.00
2019-01-25T00:02:16.966Z,25.80
2019-01-25T00:03:16.968Z,30.20
2019-01-25T00:04:16.961Z,25.80
2019-01-25T00:05:16.959Z,26.10
2019-01-25T00:06:16.938Z,29.90
2019-01-25T00:07:16.917Z,27.20
2019-01-25T00:08:16.907Z,26.10
2019-01-25T00:09:16.917Z,27.40
2019-01-25T00:10:16.909Z,31.90
2019-01-25T00:11:16.885Z,28.70
2019-01-25T00:12:16.896Z,31.10
2019-01-25T00:13:16.858Z,27.80
2019-01-25T00:14:16.844Z,26.60
2019-01-25T00:15:16.856Z,31.70
2019-01-25T00:16:16.822Z,26.60
2019-01-25T00:17:16.882Z,24.60
2019-01-25T00:18:16.803Z,29.90
2019-01-25T00:19:16.790Z,31.80
2019-01-25T00:20:16.797Z,31.20
2019-01-25T00:21:16.770Z,26.00
2019-01-25T00:22:16.769Z,34.00
2019-01-25T00:23:16.753Z,36.20
2019-01-25T00:24:16.745Z,33.20
2019-01-25T00:25:16.743Z,30.50
2019-01-25T00:26:16.723Z,26.90
2019-01-25T00:27:16.710Z,26.40
2019-01-25T00:28:16.699Z,27.70
2019-01-25T00:29:16.684Z,31.20
2019-01-25T00:30:16.701Z,30.60
2019-01-25T00:31:16.663Z,25.70
2019-01-25T00:32:16.669Z,29.10
2019-01-25T00:33:16.643Z,25.20
2019-01-25T00:34:16.634Z,30.10
2019-01-25T00:35:16.643Z,22.60
2019-01-25T00:36:16.632Z,32.20
2019-01-25T00:37:16.605Z,25.80
2019-01-25T00:38:16.600Z,27.60
2019-01-25T00:39:16.580Z,26.60
2019-01-25T00:40:16.585Z,25.10
2019-01-25T00:41:16.591Z,27.40
2019-01-25T00:42:16.548Z,22.10
2019-01-25T00:43:16.543Z,27.70
2019-01-25T00:44:16.544Z,24.30
2019-01-25T00:45:16.564Z,24.10
2019-01-25T00:46:16.513Z,27.20
2019-01-25T00:47:16.538Z,26.70
2019-01-25T00:48:16.487Z,27.40
2019-01-25T00:49:16.480Z,27.00
2019-01-25T00:50:16.480Z,27.10
2019-01-25T00:51:16.465Z,27.40
2019-01-25T00:52:16.475Z,26.20
2019-01-25T00:53:16.428Z,27.20
2019-01-25T00:54:16.421Z,30.30
2019-01-25T00:55:16.425Z,24.00
2019-01-25T00:56:16.407Z,30.20
2019-01-25T00:57:16.391Z,30.60
2019-01-25T00:58:16.382Z,28.00
2019-01-25T00:59:16.365Z,29.60
2019-01-25T01:00:16.378Z,26.50
2019-01-25T01:01:16.350Z,35.70
2019-01-25T01:02:16.347Z,26.90
2019-01-25T01:03:16.329Z,26.80
2019-01-25T01:04:16.323Z,27.40
2019-01-25T01:05:16.343Z,26.70
2019-01-25T01:06:16.295Z,28.30
2019-01-25T01:07:16.292Z,26.80
2019-01-25T01:08:16.287Z,31.70
2019-01-25T01:09:16.299Z,26.00
2019-01-25T01:10:16.270Z,26.30
2019-01-25T01:11:16.242Z,29.00
2019-01-25T01:12:16.232Z,26.50
2019-01-25T01:13:16.279Z,24.10
2019-01-25T01:14:16.292Z,31.40
2019-01-25T01:15:16.221Z,28.90
2019-01-25T01:16:16.192Z,26.80
2019-01-25T01:17:16.176Z,30.50
2019-01-25T01:18:16.171Z,25.70
2019-01-25T01:19:16.209Z,25.50
2019-01-25T01:20:16.167Z,31.60
2019-01-25T01:21:16.206Z,28.10
2019-01-25T01:22:16.129Z,27.50
2019-01-25T01:23:16.120Z,28.40
2019-01-25T01:24:16.131Z,25.80
2019-01-25T01:25:16.120Z,24.90
2019-01-25T01:26:16.088Z,29.70
2019-01-25T01:27:16.072Z,28.50
2019-01-25T01:28:16.058Z,29.40
2019-01-25T01:29:16.050Z,30.20
2019-01-25T01:30:16.077Z,28.30
2019-01-25T01:31:16.038Z,25.60
2019-01-25T01:32:16.029Z,28.70
2019-01-25T01:33:16.013Z,25.50
2019-01-25T01:34:15.993Z,26.70
2019-01-25T01:35:16.000Z,25.60
2019-01-25T01:36:15.976Z,25.00
2019-01-25T01:37:15.967Z,25.40
2019-01-25T01:38:15.962Z,25.70
2019-01-25T01:39:15.962Z,27.10
2019-01-25T01:40:21.817Z,29.10
2019-01-25T01:41:16.924Z,27.20
2019-01-25T01:42:15.917Z,26.40
2019-01-25T01:43:15.904Z,28.90
2019-01-25T01:44:15.901Z,25.20
2019-01-25T01:45:15.929Z,30.60
2019-01-25T01:46:15.902Z,29.40
2019-01-25T01:47:17.383Z,32.00
2019-01-25T01:48:15.849Z,25.30
2019-01-25T01:49:15.842Z,29.00
2019-01-25T01:50:15.858Z,29.40
2019-01-25T01:51:15.832Z,24.40
2019-01-25T01:52:15.814Z,30.70
2019-01-25T01:53:15.793Z,25.90
2019-01-25T01:54:15.789Z,30.10
2019-01-25T01:55:15.850Z,30.10
2019-01-25T01:56:15.773Z,32.70
2019-01-25T01:57:15.779Z,28.70
2019-01-25T01:58:15.744Z,26.40
2019-01-25T01:59:15.732Z,25.00
2019-01-25T02:00:15.729Z,28.40
2019-01-25T02:01:15.728Z,30.00
2019-01-25T02:02:15.702Z,26.60
2019-01-25T02:03:15.696Z,31.70
2019-01-25T02:04:15.682Z,23.80
2019-01-25T02:05:15.670Z,23.80
2019-01-25T02:06:15.674Z,24.10
2019-01-25T02:07:15.649Z,31.10
2019-01-25T02:08:15.641Z,22.80
2019-01-25T02:09:15.644Z,28.30
2019-01-25T02:10:15.614Z,26.20
2019-01-25T02:11:15.613Z,28.30
2019-01-25T02:12:15.597Z,26.80
2019-01-25T02:13:15.604Z,27.30
2019-01-25T02:14:15.576Z,29.30
2019-01-25T02:15:15.572Z,24.60
2019-01-25T02:16:15.585Z,25.80
2019-01-25T02:17:15.552Z,25.10
2019-01-25T02:18:15.557Z,26.30
2019-01-25T02:19:15.526Z,30.10
2019-01-25T02:20:15.516Z,29.20
2019-01-25T02:21:15.549Z,29.90
2019-01-25T02:22:15.568Z,27.80
2019-01-25T02:23:15.486Z,29.30
2019-01-25T02:24:15.474Z,31.10
2019-01-25T02:25:15.454Z,26.30
2019-01-25T02:26:15.458Z,25.40
2019-01-25T02:27:15.445Z,27.60
2019-01-25T02:28:15.421Z,31.70
2019-01-25T02:29:15.422Z,25.80
2019-01-25T02:30:15.421Z,25.70
2019-01-25T02:31:15.418Z,25.70
2019-01-25T02:32:15.393Z,24.60
2019-01-25T02:33:15.387Z,32.10
2019-01-25T02:34:15.369Z,27.10
2019-01-25T02:35:24.786Z,24.00
2019-01-25T02:36:15.368Z,34.20
2019-01-25T02:37:24.834Z,28.00
2019-01-25T02:38:15.317Z,26.10
2019-01-25T02:39:15.301Z,28.10
2019-01-25T02:40:15.294Z,27.40
2019-01-25T02:41:15.315Z,25.50
2019-01-25T02:42:15.276Z,28.60
2019-01-25T02:43:15.285Z,29.60
2019-01-25T02:44:15.298Z,30.40
2019-01-25T02:45:15.288Z,25.60
2019-01-25T02:46:15.323Z,32.00
2019-01-25T02:47:24.299Z,29.20
2019-01-25T02:48:15.205Z,29.00
2019-01-25T02:49:15.193Z,26.60
2019-01-25T02:50:15.184Z,28.20
2019-01-25T02:51:15.182Z,27.60
2019-01-25T02:52:15.163Z,25.90
2019-01-25T02:53:15.150Z,28.60
2019-01-25T02:54:15.143Z,28.60
2019-01-25T02:55:15.129Z,26.80
2019-01-25T02:56:15.132Z,27.50
2019-01-25T02:57:15.112Z,33.20
2019-01-25T02:58:15.099Z,28.80
2019-01-25T02:59:15.087Z,23.60
2019-01-25T03:00:15.078Z,28.10
2019-01-25T03:01:15.080Z,30.10
2019-01-25T03:02:15.059Z,24.90
2019-01-25T03:03:15.053Z,24.70
2019-01-25T03:04:15.041Z,24.80
2019-01-25T03:05:15.035Z,28.50
2019-01-25T03:06:15.024Z,26.60
2019-01-25T03:07:15.004Z,29.50
2019-01-25T03:08:14.995Z,28.90
2019-01-25T03:09:14.984Z,24.50
2019-01-25T03:10:14.971Z,29.70
2019-01-25T03:11:14.975Z,32.40
2019-01-25T03:12:14.950Z,29.00
2019-01-25T03:13:14.942Z,31.50
2019-01-25T03:14:14.932Z,28.00
2019-01-25T03:15:14.918Z,26.20
2019-01-25T03:16:14.920Z,29.90
2019-01-25T03:17:14.897Z,25.90
2019-01-25T03:18:14.891Z,27.30
2019-01-25T03:19:14.877Z,25.70
2019-01-25T03:20:14.875Z,27.40
2019-01-25T03:21:14.874Z,30.30
2019-01-25T03:22:14.846Z,29.60
2019-01-25T03:23:14.833Z,25.40
2019-01-25T03:24:14.823Z,32.70
2019-01-25T03:25:14.814Z,29.50
2019-01-25T03:26:14.814Z,30.60
2019-01-25T03:27:14.792Z,29.80
2019-01-25T03:28:14.782Z,31.20
2019-01-25T03:29:14.780Z,28.60
2019-01-25T03:30:14.760Z,25.70
2019-01-25T03:31:14.765Z,29.40
2019-01-25T03:32:14.750Z,30.70
2019-01-25T03:33:14.731Z,29.50
2019-01-25T03:34:14.717Z,27.20
2019-01-25T03:35:14.706Z,25.80
2019-01-25T03:36:14.709Z,31.60
2019-01-25T03:37:14.685Z,28.20
2019-01-25T03:38:14.674Z,29.10
2019-01-25T03:39:14.664Z,29.70
2019-01-25T03:40:14.660Z,30.20
2019-01-25T03:41:14.675Z,28.30
2019-01-25T03:42:14.633Z,30.00
2019-01-25T03:43:14.625Z,26.50
2019-01-25T03:44:14.612Z,25.80
2019-01-25T03:45:14.601Z,26.00
2019-01-25T03:46:14.601Z,35.00
2019-01-25T03:47:14.579Z,30.20
2019-01-25T03:48:14.570Z,28.40
2019-01-25T03:49:14.563Z,28.30
2019-01-25T03:50:14.567Z,30.40
2019-01-25T03:51:14.550Z,30.20
2019-01-25T03:52:14.527Z,29.20
2019-01-25T03:53:14.517Z,28.70
2019-01-25T03:54:14.505Z,27.70
2019-01-25T03:55:14.495Z,25.60
2019-01-25T03:56:14.499Z,24.80
2019-01-25T03:57:14.474Z,32.00
2019-01-25T03:58:14.464Z,25.80
2019-01-25T03:59:14.454Z,30.50
2019-01-25T04:00:14.441Z,30.70
2019-01-25T04:01:14.449Z,27.60
2019-01-25T04:02:14.420Z,30.00
2019-01-25T04:03:14.409Z,31.60
2019-01-25T04:04:14.399Z,31.40
2019-01-25T04:05:14.389Z,23.40
2019-01-25T04:06:14.438Z,27.90
2019-01-25T04:07:23.859Z,27.30
2019-01-25T04:08:14.360Z,28.60
2019-01-25T04:09:14.385Z,28.40
2019-01-25T04:10:14.335Z,27.70
2019-01-25T04:11:14.340Z,27.00
2019-01-25T04:12:14.316Z,27.00
2019-01-25T04:13:14.304Z,29.00
2019-01-25T04:14:14.292Z,28.20
2019-01-25T04:15:23.384Z,25.80
2019-01-25T04:16:14.305Z,30.00
2019-01-25T04:17:14.266Z,30.50
2019-01-25T04:18:14.300Z,26.90
2019-01-25T04:19:14.252Z,25.60
2019-01-25T04:20:14.230Z,28.20
2019-01-25T04:21:14.222Z,23.40
2019-01-25T04:22:14.221Z,26.70
2019-01-25T04:23:14.198Z,29.50
2019-01-25T04:24:14.201Z,25.90
2019-01-25T04:25:14.199Z,31.70
2019-01-25T04:26:14.171Z,25.50
2019-01-25T04:27:14.174Z,27.90
2019-01-25T04:28:14.169Z,28.60
2019-01-25T04:29:14.138Z,27.80
2019-01-25T04:30:14.137Z,28.80
2019-01-25T04:31:14.115Z,26.40
2019-01-25T04:32:14.113Z,29.80
2019-01-25T04:33:14.095Z,29.30
2019-01-25T04:34:14.090Z,24.90
2019-01-25T04:35:14.073Z,28.50
2019-01-25T04:36:14.075Z,25.80
2019-01-25T04:37:14.075Z,26.00
2019-01-25T04:38:14.042Z,25.50
2019-01-25T04:39:14.030Z,24.90
2019-01-25T04:40:14.019Z,31.10
2019-01-25T04:41:14.013Z,28.90
2019-01-25T04:42:14.015Z,27.30
2019-01-25T04:43:13.991Z,25.70
2019-01-25T04:44:13.976Z,32.80
2019-01-25T04:45:13.971Z,29.10
2019-01-25T04:46:13.953Z,28.70
2019-01-25T04:47:13.957Z,22.30
2019-01-25T04:48:13.934Z,28.30
2019-01-25T04:49:13.924Z,28.20
2019-01-25T04:50:13.918Z,21.60
2019-01-25T04:51:13.902Z,23.10
2019-01-25T04:52:13.909Z,25.00
2019-01-25T04:53:13.886Z,25.80
2019-01-25T04:54:13.874Z,28.00
2019-01-25T04:55:13.867Z,27.40
2019-01-25T04:56:13.851Z,30.20
2019-01-25T04:57:13.856Z,28.30
2019-01-25T04:58:13.831Z,33.20
2019-01-25T04:59:13.824Z,26.50
2019-01-25T05:00:13.812Z,32.40
2019-01-25T05:01:13.806Z,32.20
2019-01-25T05:02:13.802Z,28.30
2019-01-25T05:03:13.777Z,33.60
2019-01-25T05:04:13.769Z,33.10
2019-01-25T05:05:13.758Z,26.10
2019-01-25T05:06:13.747Z,32.80
2019-01-25T05:07:13.746Z,30.60
2019-01-25T05:08:13.729Z,30.70
2019-01-25T05:09:13.711Z,31.00
2019-01-25T05:10:13.706Z,30.50
2019-01-25T05:11:19.744Z,28.40
2019-01-25T05:12:14.691Z,32.00
2019-01-25T05:13:13.677Z,30.20
2019-01-25T05:14:13.659Z,35.40
2019-01-25T05:15:13.653Z,27.40
2019-01-25T05:16:13.640Z,29.80
2019-01-25T05:17:13.640Z,33.00
2019-01-25T05:18:13.622Z,33.90
2019-01-25T05:19:13.615Z,31.10
2019-01-25T05:20:13.596Z,32.40
2019-01-25T05:21:13.586Z,33.00
2019-01-25T05:22:13.588Z,31.70
2019-01-25T05:23:13.574Z,31.80
2019-01-25T05:24:13.557Z,30.00
2019-01-25T05:25:13.546Z,28.50
2019-01-25T05:26:13.534Z,33.30
2019-01-25T05:27:13.532Z,34.20
2019-01-25T05:28:13.513Z,32.40
2019-01-25T05:29:13.509Z,35.30
2019-01-25T05:30:13.540Z,26.90
2019-01-25T05:31:13.480Z,27.80
2019-01-25T05:32:13.480Z,28.80
2019-01-25T05:33:13.457Z,30.90
2019-01-25T05:34:13.447Z,29.10
2019-01-25T05:35:13.444Z,27.90
2019-01-25T05:36:13.431Z,27.80
2019-01-25T05:37:13.427Z,25.10
2019-01-25T05:38:13.404Z,33.00
2019-01-25T05:39:13.398Z,31.00
2019-01-25T05:40:13.386Z,31.80
2019-01-25T05:41:13.377Z,31.30
2019-01-25T05:42:13.384Z,31.20
2019-01-25T05:43:13.353Z,29.80
2019-01-25T05:44:13.344Z,31.50
2019-01-25T05:45:13.334Z,25.20
2019-01-25T05:46:13.319Z,27.40
2019-01-25T05:47:13.371Z,28.80
2019-01-25T05:48:13.301Z,26.90
2019-01-25T05:49:13.367Z,29.20
2019-01-25T05:50:13.283Z,30.20
2019-01-25T05:51:13.269Z,29.80
2019-01-25T05:52:13.283Z,25.90
2019-01-25T05:53:13.261Z,26.20
2019-01-25T05:54:13.240Z,26.70
2019-01-25T05:55:13.230Z,28.30
2019-01-25T05:56:13.224Z,28.60
2019-01-25T05:57:13.227Z,28.20
2019-01-25T05:58:13.201Z,26.60
2019-01-25T05:59:13.195Z,25.30
2019-01-25T06:00:13.175Z,27.80
2019-01-25T06:01:13.162Z,32.70
2019-01-25T06:02:13.166Z,27.60
2019-01-25T06:03:13.143Z,30.00
2019-01-25T06:04:13.134Z,29.00
2019-01-25T06:05:13.125Z,25.30
2019-01-25T06:06:13.110Z,28.10
2019-01-25T06:07:13.113Z,27.60
2019-01-25T06:08:13.092Z,27.30
2019-01-25T06:09:13.080Z,32.40
2019-01-25T06:10:13.069Z,29.70
2019-01-25T06:11:13.065Z,29.00
2019-01-25T06:12:13.057Z,25.20
2019-01-25T06:13:13.035Z,29.00
2019-01-25T06:14:13.050Z,31.70
2019-01-25T06:15:13.023Z,29.60
2019-01-25T06:16:13.043Z,32.50
2019-01-25T06:17:13.016Z,32.50
2019-01-25T06:18:12.986Z,28.40
2019-01-25T06:19:12.984Z,37.20
2019-01-25T06:20:12.975Z,31.40
2019-01-25T06:21:12.958Z,31.10
2019-01-25T06:22:12.958Z,31.90
2019-01-25T06:23:12.945Z,30.70
2019-01-25T06:24:12.923Z,37.20
2019-01-25T06:25:12.930Z,29.00
2019-01-25T06:26:12.916Z,28.00
2019-01-25T06:27:12.913Z,33.30
2019-01-25T06:28:12.882Z,31.50
2019-01-25T06:29:12.873Z,32.00
2019-01-25T06:30:12.865Z,31.10
2019-01-25T06:31:12.852Z,37.00
2019-01-25T06:32:12.841Z,32.20
2019-01-25T06:33:12.849Z,29.70
2019-01-25T06:34:12.822Z,28.00
2019-01-25T06:35:12.807Z,30.20
2019-01-25T06:36:12.799Z,35.20
2019-01-25T06:37:12.786Z,34.70
2019-01-25T06:38:12.798Z,30.80
2019-01-25T06:39:12.769Z,29.00
2019-01-25T06:40:12.758Z,29.80
2019-01-25T06:41:12.756Z,29.60
2019-01-25T06:42:12.735Z,34.80
2019-01-25T06:43:12.788Z,33.70
2019-01-25T06:44:12.712Z,32.70
2019-01-25T06:45:12.711Z,35.40
2019-01-25T06:46:12.705Z,30.40
2019-01-25T06:47:12.681Z,33.00
2019-01-25T06:48:12.688Z,31.50
2019-01-25T06:49:12.662Z,30.90
2019-01-25T06:50:12.652Z,29.90
2019-01-25T06:51:12.647Z,34.90
2019-01-25T06:52:12.636Z,34.10
2019-01-25T06:53:12.637Z,29.10
2019-01-25T06:54:12.616Z,30.70
2019-01-25T06:55:12.597Z,30.50
2019-01-25T06:56:12.586Z,28.80
2019-01-25T06:57:12.579Z,36.60
2019-01-25T06:58:12.582Z,34.10
2019-01-25T06:59:12.558Z,29.20
2019-01-25T07:00:12.541Z,34.40
2019-01-25T07:01:12.533Z,26.40
2019-01-25T07:02:12.522Z,34.00
2019-01-25T07:03:12.533Z,33.60
2019-01-25T07:04:12.532Z,30.10
2019-01-25T07:05:12.511Z,34.10
2019-01-25T07:06:12.479Z,34.70
2019-01-25T07:07:12.471Z,36.10
2019-01-25T07:08:12.478Z,30.60
2019-01-25T07:09:12.451Z,33.00
2019-01-25T07:10:12.441Z,32.10
2019-01-25T07:11:12.425Z,29.80
2019-01-25T07:12:12.418Z,29.90
2019-01-25T07:13:12.426Z,31.30
2019-01-25T07:14:12.403Z,30.40
2019-01-25T07:15:12.391Z,31.40
2019-01-25T07:16:12.382Z,32.00
2019-01-25T07:17:12.370Z,32.00
2019-01-25T07:18:12.411Z,31.70
2019-01-25T07:19:12.340Z,28.00
2019-01-25T07:20:12.339Z,32.50
2019-01-25T07:21:12.327Z,31.70
2019-01-25T07:22:12.313Z,34.50
2019-01-25T07:23:12.310Z,32.60
2019-01-25T07:24:12.281Z,30.00
2019-01-25T07:25:12.278Z,27.80
2019-01-25T07:26:12.261Z,30.70
2019-01-25T07:27:12.274Z,29.90
2019-01-25T07:28:12.257Z,30.30
2019-01-25T07:29:12.247Z,30.80
2019-01-25T07:30:12.230Z,30.50
2019-01-25T07:31:12.420Z,28.50
2019-01-25T07:32:12.205Z,33.90
2019-01-25T07:33:12.206Z,30.30
2019-01-25T07:34:12.203Z,31.60
2019-01-25T07:35:12.169Z,30.30
2019-01-25T07:36:12.174Z,23.90
2019-01-25T07:37:12.159Z,27.10
2019-01-25T07:38:12.165Z,26.60
2019-01-25T07:39:12.126Z,31.60
2019-01-25T07:40:12.115Z,32.20
2019-01-25T07:41:12.293Z,31.00
2019-01-25T07:42:12.094Z,32.10
2019-01-25T07:43:12.097Z,30.50
2019-01-25T07:44:12.072Z,30.90
2019-01-25T07:45:12.062Z,30.20
2019-01-25T07:46:12.058Z,33.80
2019-01-25T07:47:12.052Z,30.10
2019-01-25T07:48:12.051Z,32.10
2019-01-25T07:49:12.029Z,27.60
2019-01-25T07:50:12.141Z,27.80
2019-01-25T07:51:12.011Z,25.90
2019-01-25T07:52:11.992Z,25.70
2019-01-25T07:53:11.998Z,27.60
2019-01-25T07:54:11.976Z,36.50
2019-01-25T07:55:12.022Z,30.40
2019-01-25T07:56:11.948Z,27.50
2019-01-25T07:57:11.948Z,32.40
2019-01-25T07:58:11.964Z,25.10
2019-01-25T07:59:11.919Z,30.90
2019-01-25T08:00:11.953Z,26.10
2019-01-25T08:01:11.903Z,25.40
2019-01-25T08:02:11.888Z,28.20
2019-01-25T08:03:11.884Z,28.30
2019-01-25T08:04:11.893Z,29.20
2019-01-25T08:05:11.850Z,23.40
2019-01-25T08:06:11.868Z,25.80
2019-01-25T08:07:11.829Z,28.00
2019-01-25T08:08:11.842Z,26.70
2019-01-25T08:09:11.825Z,29.10
2019-01-25T08:10:11.806Z,23.60
2019-01-25T08:11:11.793Z,32.20
2019-01-25T08:12:11.784Z,29.80
2019-01-25T08:13:11.784Z,31.60
2019-01-25T08:14:12.880Z,28.60
2019-01-25T08:15:11.843Z,27.40
2019-01-25T08:16:11.787Z,24.50
2019-01-25T08:17:11.780Z,23.70
2019-01-25T08:18:11.780Z,26.20
2019-01-25T08:19:11.704Z,27.80
2019-01-25T08:20:11.695Z,27.00
2019-01-25T08:21:11.686Z,24.40
2019-01-25T08:22:11.679Z,23.20
2019-01-25T08:23:11.690Z,25.10
2019-01-25T08:24:11.682Z,27.70
2019-01-25T08:25:11.661Z,25.20
2019-01-25T08:26:11.677Z,29.60
2019-01-25T08:27:11.645Z,28.10
2019-01-25T08:28:11.631Z,28.10
2019-01-25T08:29:11.793Z,27.90
2019-01-25T08:30:11.645Z,36.30
2019-01-25T08:31:11.598Z,28.00
2019-01-25T08:32:11.573Z,29.00
2019-01-25T08:33:11.563Z,24.20
2019-01-25T08:34:11.590Z,32.30
2019-01-25T08:35:11.564Z,27.00
2019-01-25T08:36:11.534Z,28.00
2019-01-25T08:37:11.586Z,32.10
2019-01-25T08:38:11.540Z,31.00
2019-01-25T08:39:11.553Z,31.90
2019-01-25T08:40:11.493Z,31.60
2019-01-25T08:41:11.479Z,26.80
2019-01-25T08:42:15.716Z,26.30
2019-01-25T08:43:11.623Z,28.30
2019-01-25T08:44:11.466Z,28.00
2019-01-25T08:45:11.430Z,22.20
2019-01-25T08:46:11.423Z,30.40
2019-01-25T08:47:11.427Z,28.60
2019-01-25T08:48:11.417Z,31.00
2019-01-25T08:49:11.401Z,28.80
2019-01-25T08:50:11.390Z,29.20
2019-01-25T08:51:11.679Z,29.20
2019-01-25T08:52:11.360Z,23.60
2019-01-25T08:53:11.399Z,30.80
2019-01-25T08:54:11.358Z,33.30
2019-01-25T08:55:11.333Z,29.90
2019-01-25T08:56:11.316Z,31.60
2019-01-25T08:57:11.307Z,29.70
2019-01-25T08:58:11.301Z,32.70
2019-01-25T08:59:11.415Z,33.10
2019-01-25T09:00:11.277Z,27.10
2019-01-25T09:01:11.266Z,30.40
2019-01-25T09:02:11.255Z,27.70
2019-01-25T09:03:11.246Z,32.90
2019-01-25T09:04:11.242Z,30.50
2019-01-25T09:05:11.525Z,31.40
2019-01-25T09:06:11.216Z,29.90
2019-01-25T09:07:11.198Z,28.30
2019-01-25T09:08:11.192Z,30.00
2019-01-25T09:09:11.189Z,30.70
2019-01-25T09:10:11.167Z,35.10
2019-01-25T09:11:11.154Z,35.70
2019-01-25T09:12:11.144Z,28.50
2019-01-25T09:13:11.133Z,28.00
2019-01-25T09:14:11.132Z,30.10
2019-01-25T09:15:11.112Z,29.30
2019-01-25T09:16:11.103Z,29.10
2019-01-25T09:17:11.089Z,28.90
2019-01-25T09:18:11.076Z,32.70
2019-01-25T09:19:11.088Z,28.80
2019-01-25T09:20:14.581Z,28.60
2019-01-25T09:21:11.043Z,35.10
2019-01-25T09:22:11.033Z,31.30
2019-01-25T09:23:11.024Z,31.30
2019-01-25T09:24:11.027Z,30.20
2019-01-25T09:25:11.005Z,32.00
2019-01-25T09:26:10.991Z,28.60
2019-01-25T09:27:10.982Z,29.90
2019-01-25T09:28:10.975Z,23.20
2019-01-25T09:29:10.987Z,25.90
2019-01-25T09:30:10.947Z,28.10
2019-01-25T09:31:10.937Z,25.80
2019-01-25T09:32:10.926Z,28.30
2019-01-25T09:33:10.915Z,29.60
2019-01-25T09:34:10.917Z,29.90
2019-01-25T09:35:10.895Z,25.60
2019-01-25T09:36:10.944Z,27.60
2019-01-25T09:37:10.878Z,27.60
2019-01-25T09:38:10.865Z,33.10
2019-01-25T09:39:10.866Z,25.40
2019-01-25T09:40:10.901Z,28.50
2019-01-25T09:41:10.840Z,30.60
2019-01-25T09:42:10.828Z,30.80
2019-01-25T09:43:10.828Z,32.00
2019-01-25T09:44:10.818Z,32.90
2019-01-25T09:45:10.787Z,32.40
2019-01-25T09:46:10.787Z,28.50
2019-01-25T09:47:10.770Z,26.70
2019-01-25T09:48:10.763Z,23.70
2019-01-25T09:49:10.773Z,24.80
2019-01-25T09:50:10.746Z,30.30
2019-01-25T09:51:10.733Z,27.30
2019-01-25T09:52:10.723Z,30.50
2019-01-25T09:53:10.714Z,28.70
2019-01-25T09:54:10.713Z,29.70
2019-01-25T09:55:10.690Z,30.20
2019-01-25T09:56:10.678Z,28.70
2019-01-25T09:57:10.673Z,27.30
2019-01-25T09:58:10.659Z,28.40
2019-01-25T09:59:10.668Z,26.40
2019-01-25T10:00:10.633Z,23.80
2019-01-25T10:01:10.622Z,23.30
2019-01-25T10:02:10.616Z,23.50
2019-01-25T10:03:10.602Z,27.40
2019-01-25T10:04:10.603Z,26.60
2019-01-25T10:05:10.581Z,27.30
2019-01-25T10:06:10.570Z,24.10
2019-01-25T10:07:10.560Z,27.40
2019-01-25T10:08:10.543Z,25.40
2019-01-25T10:09:10.546Z,23.50
2019-01-25T10:10:10.527Z,25.60
2019-01-25T10:11:10.516Z,21.70
2019-01-25T10:12:10.504Z,22.50
2019-01-25T10:13:10.489Z,25.50
2019-01-25T10:14:10.498Z,21.20
2019-01-25T10:15:10.469Z,27.60
2019-01-25T10:16:10.460Z,26.90
2019-01-25T10:17:10.448Z,28.60
2019-01-25T10:18:10.441Z,24.30
2019-01-25T10:19:10.439Z,20.20
2019-01-25T10:20:10.420Z,26.70
2019-01-25T10:21:10.404Z,22.40
2019-01-25T10:22:10.395Z,22.10
2019-01-25T10:23:10.382Z,22.40
2019-01-25T10:24:10.385Z,22.10
2019-01-25T10:25:10.360Z,25.80
2019-01-25T10:26:10.352Z,22.00
2019-01-25T10:27:10.337Z,23.70
2019-01-25T10:28:10.330Z,19.80
2019-01-25T10:29:10.327Z,22.60
2019-01-25T10:30:10.308Z,20.50
2019-01-25T10:31:10.294Z,22.00
2019-01-25T10:32:10.287Z,21.20
2019-01-25T10:33:10.273Z,23.30
2019-01-25T10:34:10.276Z,23.30
2019-01-25T10:35:10.252Z,23.40
2019-01-25T10:36:10.243Z,20.70
2019-01-25T10:37:10.233Z,25.90
2019-01-25T10:38:10.225Z,27.30
2019-01-25T10:39:10.222Z,19.50
2019-01-25T10:40:10.211Z,22.40
2019-01-25T10:41:10.196Z,22.40
2019-01-25T10:42:10.192Z,23.80
2019-01-25T10:43:10.174Z,17.80
2019-01-25T10:44:10.173Z,24.10
2019-01-25T10:45:10.150Z,21.80
2019-01-25T10:46:10.137Z,19.90
2019-01-25T10:47:10.120Z,25.00
2019-01-25T10:48:10.112Z,24.20
2019-01-25T10:49:10.118Z,21.70
2019-01-25T10:50:10.088Z,17.60
2019-01-25T10:51:10.078Z,20.90
2019-01-25T10:52:10.065Z,24.10
2019-01-25T10:53:10.056Z,20.00
2019-01-25T10:54:10.062Z,28.10
2019-01-25T10:55:10.033Z,26.70
2019-01-25T10:56:10.022Z,23.10
2019-01-25T10:57:10.018Z,22.60
2019-01-25T10:58:10.002Z,23.00
2019-01-25T10:59:10.002Z,24.00
2019-01-25T11:00:09.981Z,26.90
2019-01-25T11:01:10.019Z,24.50
2019-01-25T11:02:09.958Z,20.50
2019-01-25T11:03:09.950Z,24.40
2019-01-25T11:04:11.662Z,24.40
2019-01-25T11:05:09.934Z,22.80
2019-01-25T11:06:09.918Z,21.70
2019-01-25T11:07:09.906Z,24.40
2019-01-25T11:08:09.900Z,25.10
2019-01-25T11:09:09.886Z,21.70
2019-01-25T11:10:09.897Z,24.30
2019-01-25T11:11:09.861Z,21.40
2019-01-25T11:12:09.860Z,24.00
2019-01-25T11:13:09.840Z,23.50
2019-01-25T11:14:09.852Z,21.50
2019-01-25T11:15:09.833Z,23.10
2019-01-25T11:16:11.906Z,22.60
2019-01-25T11:17:09.803Z,20.80
2019-01-25T11:18:09.783Z,22.20
2019-01-25T11:19:09.777Z,23.50
2019-01-25T11:20:09.775Z,19.80
2019-01-25T11:21:11.296Z,19.50
2019-01-25T11:22:09.746Z,20.20
2019-01-25T11:23:09.732Z,18.70
2019-01-25T11:24:09.722Z,21.40
2019-01-25T11:25:09.726Z,21.10
2019-01-25T11:26:09.700Z,21.50
2019-01-25T11:27:09.694Z,22.90
2019-01-25T11:28:09.696Z,21.90
2019-01-25T11:29:09.676Z,19.30
2019-01-25T11:30:09.675Z,21.10
2019-01-25T11:31:09.650Z,18.70
2019-01-25T11:32:09.639Z,18.10
2019-01-25T11:33:09.630Z,20.40
2019-01-25T11:34:09.614Z,22.90
2019-01-25T11:35:09.631Z,21.30
2019-01-25T11:36:09.599Z,21.30
2019-01-25T11:37:09.588Z,21.90
2019-01-25T11:38:09.574Z,21.10
2019-01-25T11:39:09.564Z,19.30
2019-01-25T11:40:09.572Z,20.60
2019-01-25T11:41:09.542Z,22.80
2019-01-25T11:42:09.529Z,20.40
2019-01-25T11:43:09.524Z,18.90
2019-01-25T11:44:09.507Z,18.30
2019-01-25T11:45:09.506Z,20.40
2019-01-25T11:46:09.482Z,20.10
2019-01-25T11:47:09.472Z,22.10
2019-01-25T11:48:09.464Z,15.90
2019-01-25T11:49:09.450Z,21.70
2019-01-25T11:50:09.450Z,24.80
2019-01-25T11:51:09.429Z,17.00
2019-01-25T11:52:09.418Z,19.90
2019-01-25T11:53:09.406Z,18.00
2019-01-25T11:54:09.397Z,20.60
2019-01-25T11:55:09.402Z,20.00
2019-01-25T11:56:09.381Z,18.40
2019-01-25T11:57:09.363Z,20.30
2019-01-25T11:58:09.353Z,22.00
2019-01-25T11:59:09.343Z,21.20
2019-01-25T12:00:09.344Z,19.20
2019-01-25T12:01:09.320Z,22.70
2019-01-25T12:02:09.317Z,18.60
2019-01-25T12:03:09.299Z,16.60
2019-01-25T12:04:09.289Z,17.80
2019-01-25T12:05:09.290Z,18.00
2019-01-25T12:06:09.267Z,17.60
2019-01-25T12:07:09.255Z,15.70
2019-01-25T12:08:09.247Z,16.60
2019-01-25T12:09:09.235Z,21.10
2019-01-25T12:10:09.241Z,15.80
2019-01-25T12:11:09.213Z,19.90
2019-01-25T12:12:09.202Z,17.30
2019-01-25T12:13:15.847Z,18.70
2019-01-25T12:14:10.178Z,22.70
2019-01-25T12:15:09.183Z,19.30
2019-01-25T12:16:09.159Z,20.00
2019-01-25T12:17:09.149Z,22.00
2019-01-25T12:18:09.138Z,20.40
2019-01-25T12:19:09.143Z,21.80
2019-01-25T12:20:09.126Z,18.80
2019-01-25T12:21:09.111Z,17.70
2019-01-25T12:22:09.097Z,21.20
2019-01-25T12:23:09.086Z,16.70
2019-01-25T12:24:09.077Z,18.60
2019-01-25T12:25:09.073Z,20.90
2019-01-25T12:26:09.050Z,21.70
2019-01-25T12:27:09.041Z,21.60
2019-01-25T12:28:09.032Z,20.60
2019-01-25T12:29:09.018Z,25.40
2019-01-25T12:30:09.034Z,25.00
2019-01-25T12:31:09.000Z,18.10
2019-01-25T12:32:08.987Z,20.70
2019-01-25T12:33:08.977Z,22.30
2019-01-25T12:34:08.966Z,22.40
2019-01-25T12:35:08.974Z,25.80
2019-01-25T12:36:08.953Z,19.90
2019-01-25T12:37:08.934Z,21.80
2019-01-25T12:38:08.922Z,22.30
2019-01-25T12:39:08.990Z,22.30
2019-01-25T12:40:08.917Z,23.00
2019-01-25T12:41:08.895Z,21.60
2019-01-25T12:42:08.883Z,22.60
2019-01-25T12:43:08.871Z,21.80
2019-01-25T12:44:08.857Z,24.40
2019-01-25T12:45:08.865Z,21.30
2019-01-25T12:46:08.839Z,22.90
2019-01-25T12:47:08.830Z,22.50
2019-01-25T12:48:08.814Z,23.80
2019-01-25T12:49:08.803Z,22.40
2019-01-25T12:50:08.813Z,23.00
2019-01-25T12:51:08.784Z,21.50
2019-01-25T12:52:08.772Z,24.30